Time;durP1;ratioP1;P1;durP2;ratioP2;P2;SDS_P1;SDS_P2;PMS_P1;PMS_P2;Temp;Humidity;BMP_temperature;BMP_pressure;BME280_temperature;BME280_humidity;BME280_pressure;Samples;Min_cycle;Max_cycle;Signal;HPM_P1;HPM_P2
2021/12/18 00:02:22;;;;;;;8.18;2.55;;;10.40;99.90;;;;;;5073222;28;20028;-75
2021/12/18 00:04:51;;;;;;;5.45;2.65;;;10.40;99.90;;;;;;5073272;28;20484;-75
2021/12/18 00:07:17;;;;;;;6.60;2.83;;;10.40;99.90;;;;;;5055504;28;20039;-75
2021/12/18 00:09:46;;;;;;;6.47;2.38;;;10.40;99.90;;;;;;5073185;28;20074;-76
2021/12/18 00:12:12;;;;;;;5.25;2.47;;;10.30;99.90;;;;;;5073300;28;20035;-75
2021/12/18 00:14:38;;;;;;;5.63;2.30;;;10.30;99.90;;;;;;5073486;28;20021;-75
2021/12/18 00:17:22;;;;;;;5.95;2.45;;;10.30;99.90;;;;;;5073567;28;20025;-76
2021/12/18 00:19:48;;;;;;;6.38;2.55;;;10.30;99.90;;;;;;5073685;28;20107;-75
2021/12/18 00:22:14;;;;;;;8.98;3.05;;;10.30;99.90;;;;;;5055834;28;20032;-75
2021/12/18 00:24:40;;;;;;;7.63;3.05;;;10.30;99.90;;;;;;5073130;28;20028;-76
2021/12/18 00:27:06;;;;;;;8.57;3.90;;;10.30;99.90;;;;;;5073323;28;20028;-76
2021/12/18 00:29:33;;;;;;;7.50;3.47;;;10.30;99.90;;;;;;5073180;28;20078;-75
2021/12/18 00:32:01;;;;;;;7.38;3.35;;;10.30;99.90;;;;;;5072961;28;20115;-76
2021/12/18 00:34:30;;;;;;;6.97;3.22;;;10.30;99.90;;;;;;5054955;28;20098;-75
2021/12/18 00:36:56;;;;;;;7.07;3.38;;;10.30;99.90;;;;;;5073362;28;20070;-75
2021/12/18 00:39:23;;;;;;;5.57;2.95;;;10.30;99.90;;;;;;5071575;28;20043;-75
2021/12/18 00:42:07;;;;;;;7.10;2.15;;;10.30;99.90;;;;;;5072729;28;20514;-76
2021/12/18 00:44:44;;;;;;;5.55;1.95;;;10.20;99.90;;;;;;5072219;28;20068;-75
2021/12/18 00:47:10;;;;;;;5.53;1.70;;;10.30;99.90;;;;;;5073071;28;20021;-75
2021/12/18 00:49:37;;;;;;;3.25;1.67;;;10.30;99.90;;;;;;5073259;28;20056;-77
2021/12/18 00:52:04;;;;;;;4.15;2.13;;;10.30;99.90;;;;;;5072807;28;20095;-78
2021/12/18 00:54:31;;;;;;;3.65;2.00;;;10.30;99.90;;;;;;5072724;28;20028;-76
2021/12/18 00:56:59;;;;;;;4.93;1.75;;;10.30;99.90;;;;;;5073037;28;20477;-78
2021/12/18 00:59:27;;;;;;;4.63;1.88;;;10.40;99.90;;;;;;5072714;28;20027;-78
2021/12/18 01:01:53;;;;;;;3.80;1.73;;;10.30;99.90;;;;;;5073031;28;20032;-77
2021/12/18 01:04:26;;;;;;;3.83;2.00;;;10.30;99.90;;;;;;5073139;28;20027;-77
2021/12/18 01:06:53;;;;;;;5.32;2.05;;;10.30;99.90;;;;;;5072626;28;20035;-78
2021/12/18 01:09:29;;;;;;;;;;;10.30;99.90;;;;;;5072992;28;20046;-77
2021/12/18 01:11:58;;;;;;;2.50;1.50;;;10.30;99.90;;;;;;5072622;28;19941;-77
2021/12/18 01:25:25;;;;;;;3.17;1.80;;;10.40;99.90;;;;;;5072418;28;20031;-78
2021/12/18 01:27:51;;;;;;;3.35;1.77;;;10.50;99.90;;;;;;5072490;28;20504;-78
2021/12/18 01:30:19;;;;;;;7.27;1.83;;;10.50;99.90;;;;;;5072602;28;20095;-78
2021/12/18 01:32:45;;;;;;;6.97;2.03;;;10.50;99.90;;;;;;5072684;28;20732;-78
2021/12/18 01:35:13;;;;;;;4.40;1.88;;;10.50;99.90;;;;;;5054193;28;20047;-77
2021/12/18 01:38:01;;;;;;;3.70;1.83;;;10.50;99.90;;;;;;5054730;28;20358;-78
2021/12/18 01:40:46;;;;;;;5.80;2.13;;;10.50;99.90;;;;;;5072270;28;20105;-78
2021/12/18 01:44:16;;;;;;;4.95;1.90;;;10.50;99.90;;;;;;5070890;28;20032;-77
2021/12/18 01:46:41;;;;;;;5.82;1.98;;;10.50;99.90;;;;;;5071663;28;20056;-77
2021/12/18 01:52:18;;;;;;;4.85;1.95;;;10.40;99.90;;;;;;5072662;28;20127;-77
2021/12/18 01:54:47;;;;;;;9.43;2.83;;;10.30;99.90;;;;;;5072836;28;20016;-77
2021/12/18 01:57:17;;;;;;;5.13;2.33;;;10.30;99.90;;;;;;5075802;28;20051;-77
2021/12/18 01:59:47;;;;;;;5.70;2.53;;;10.20;99.90;;;;;;5075965;28;20074;-77
2021/12/18 02:02:16;;;;;;;5.03;2.15;;;10.20;99.90;;;;;;5076029;28;20567;-77
2021/12/18 02:04:44;;;;;;;9.23;2.50;;;10.20;99.90;;;;;;5041669;28;20033;-76
2021/12/18 02:07:11;;;;;;;5.65;2.10;;;10.20;99.90;;;;;;5075685;28;20025;-77
2021/12/18 02:10:01;;;;;;;7.97;2.40;;;10.10;99.90;;;;;;5075131;28;20025;-77
2021/12/18 02:12:43;;;;;;;5.35;2.25;;;10.20;99.90;;;;;;5075986;28;20044;-77
2021/12/18 02:20:49;;;;;;;4.43;2.00;;;10.30;99.90;;;;;;5075528;28;20179;-77
2021/12/18 02:23:17;;;;;;;4.03;1.90;;;10.30;99.90;;;;;;5075329;28;20036;-77
2021/12/18 02:25:45;;;;;;;3.55;1.92;;;10.30;99.90;;;;;;5075359;28;20024;-77
2021/12/18 02:28:22;;;;;;;7.25;2.08;;;10.30;99.90;;;;;;5075544;28;20032;-78
2021/12/18 02:30:49;;;;;;;;;;;10.30;99.90;;;;;;5075752;28;20055;-77
2021/12/18 02:33:15;;;;;;;;;;;10.30;99.90;;;;;;5075668;28;19904;-77
2021/12/18 02:35:47;;;;;;;4.25;1.90;;;10.30;99.90;;;;;;5075509;28;19987;-77
2021/12/18 02:38:20;;;;;;;5.60;2.30;;;10.40;99.90;;;;;;5075624;28;20041;-77
2021/12/18 02:41:05;;;;;;;5.50;2.10;;;10.40;99.90;;;;;;5075508;28;20043;-77
2021/12/18 02:43:34;;;;;;;5.32;1.55;;;10.40;99.90;;;;;;5074294;28;20078;-76
2021/12/18 02:46:06;;;;;;;5.40;1.80;;;10.50;99.90;;;;;;5075113;28;20060;-77
2021/12/18 02:48:35;;;;;;;3.35;1.60;;;10.50;99.90;;;;;;5074839;28;20111;-76
2021/12/18 02:51:09;;;;;;;3.58;1.90;;;10.60;99.90;;;;;;5074893;28;20043;-77
2021/12/18 02:53:36;;;;;;;3.00;1.80;;;10.60;99.90;;;;;;5075155;28;20024;-78
2021/12/18 02:56:12;;;;;;;7.45;2.08;;;10.70;99.90;;;;;;5056937;28;20032;-77
2021/12/18 02:58:42;;;;;;;3.33;1.70;;;10.70;99.90;;;;;;5056704;28;20435;-77
2021/12/18 03:01:12;;;;;;;4.68;1.88;;;10.60;99.90;;;;;;5075448;28;20029;-78
2021/12/18 03:03:40;;;;;;;5.43;2.05;;;10.70;99.90;;;;;;5074834;28;20107;-77
2021/12/18 03:22:49;;;;;;;3.45;1.80;;;10.80;99.90;;;;;;5074305;28;20062;-77
2021/12/18 03:25:19;;;;;;;5.57;2.00;;;10.80;99.90;;;;;;5073958;28;20066;-77
2021/12/18 03:27:46;;;;;;;4.93;2.00;;;10.80;99.90;;;;;;5074109;28;20097;-78
2021/12/18 03:30:14;;;;;;;3.92;1.70;;;10.80;99.90;;;;;;5073839;28;20052;-77
2021/12/18 03:32:40;;;;;;;5.07;1.60;;;10.70;99.90;;;;;;5074084;28;20012;-77
2021/12/18 03:35:09;;;;;;;4.10;1.77;;;10.70;99.90;;;;;;5074026;28;20059;-78
2021/12/18 03:37:36;;;;;;;4.60;1.85;;;10.60;99.90;;;;;;5073916;28;20020;-77
2021/12/18 03:40:06;;;;;;;5.75;1.92;;;10.70;99.90;;;;;;5073487;28;20071;-77
2021/12/18 03:42:33;;;;;;;7.43;3.00;;;10.70;99.90;;;;;;5073848;28;20036;-77
2021/12/18 03:45:00;;;;;;;4.55;2.35;;;10.60;99.90;;;;;;5073808;28;20047;-77
2021/12/18 03:47:32;;;;;;;4.72;2.10;;;10.50;99.90;;;;;;5056083;28;20392;-78
2021/12/18 03:49:58;;;;;;;4.90;2.40;;;10.40;99.90;;;;;;5074264;28;20020;-77
2021/12/18 03:52:24;;;;;;;4.03;2.10;;;10.40;99.90;;;;;;5073679;28;20476;-77
2021/12/18 03:54:52;;;;;;;4.45;2.42;;;10.30;99.90;;;;;;5073676;28;20032;-77
2021/12/18 03:57:19;;;;;;;4.95;1.95;;;10.30;99.90;;;;;;5055711;28;20538;-78
2021/12/18 03:59:47;;;;;;;4.03;1.83;;;10.20;99.90;;;;;;5072771;28;20056;-77
2021/12/18 04:02:28;;;;;;;3.88;2.00;;;10.20;99.90;;;;;;5073779;28;20032;-77
2021/12/18 04:04:54;;;;;;;4.10;2.38;;;10.20;99.90;;;;;;5073819;28;20025;-77
2021/12/18 04:07:20;;;;;;;5.50;2.08;;;10.10;99.90;;;;;;5073432;28;20032;-78
2021/12/18 04:09:49;;;;;;;3.70;1.85;;;10.10;99.90;;;;;;5073417;28;20028;-77
2021/12/18 04:12:16;;;;;;;5.50;2.05;;;10.10;99.90;;;;;;5073860;28;20491;-77
2021/12/18 04:14:43;;;;;;;6.63;2.03;;;10.20;99.90;;;;;;5073584;28;20115;-77
2021/12/18 04:17:09;;;;;;;3.45;1.70;;;10.10;99.90;;;;;;5055262;28;20023;-78
2021/12/18 04:19:37;;;;;;;3.97;1.87;;;10.10;99.90;;;;;;5073234;28;20481;-77
2021/12/18 04:22:04;;;;;;;4.57;1.90;;;10.10;99.90;;;;;;5073453;28;20447;-78
2021/12/18 04:24:31;;;;;;;4.57;1.80;;;10.10;99.90;;;;;;5073286;28;20025;-78
2021/12/18 04:26:58;;;;;;;4.22;1.73;;;10.10;99.90;;;;;;5073175;28;20032;-78
2021/12/18 04:29:24;;;;;;;3.55;1.70;;;10.20;99.90;;;;;;5073376;28;20027;-78
2021/12/18 04:31:51;;;;;;;4.47;1.70;;;10.20;99.90;;;;;;5073756;28;20110;-78
2021/12/18 04:34:19;;;;;;;3.28;1.60;;;10.30;99.90;;;;;;5072986;28;20107;-78
2021/12/18 04:36:49;;;;;;;5.70;1.75;;;10.30;99.90;;;;;;5072946;28;20391;-78
2021/12/18 04:39:18;;;;;;;4.00;1.60;;;10.30;99.90;;;;;;5073084;28;20362;-77
2021/12/18 04:41:51;;;;;;;5.38;1.63;;;10.30;99.90;;;;;;5072874;28;20041;-77
2021/12/18 04:44:18;;;;;;;4.85;1.65;;;10.40;99.90;;;;;;5055974;28;20021;-78
2021/12/18 04:46:44;;;;;;;4.60;1.92;;;10.30;99.90;;;;;;5073426;28;20397;-77
2021/12/18 04:49:10;;;;;;;2.97;1.38;;;10.20;99.90;;;;;;5072920;28;20021;-77
2021/12/18 04:51:40;;;;;;;4.85;1.70;;;10.30;99.90;;;;;;5072853;28;20308;-77
2021/12/18 04:54:07;;;;;;;4.13;1.40;;;10.30;99.90;;;;;;5072893;28;20087;-78
2021/12/18 04:56:34;;;;;;;2.72;1.42;;;10.30;99.90;;;;;;5072858;28;20029;-78
2021/12/18 04:59:02;;;;;;;6.43;1.58;;;10.40;99.90;;;;;;5073200;28;20020;-78
2021/12/18 05:01:32;;;;;;;3.42;1.55;;;10.40;99.90;;;;;;5072638;28;20128;-79
2021/12/18 05:04:28;;;;;;;3.28;1.50;;;10.40;99.90;;;;;;5070478;28;20037;-77
2021/12/18 05:06:55;;;;;;;4.28;1.60;;;10.60;99.90;;;;;;5072632;28;20024;-78
2021/12/18 05:09:21;;;;;;;2.20;1.30;;;10.70;99.90;;;;;;5072766;28;20067;-76
2021/12/18 05:11:48;;;;;;;4.72;1.60;;;10.70;99.90;;;;;;5072697;28;20047;-76
2021/12/18 05:14:16;;;;;;;5.30;1.58;;;10.70;99.90;;;;;;5072889;28;20028;-75
2021/12/18 05:16:43;;;;;;;6.18;2.00;;;10.80;99.90;;;;;;5072521;28;20032;-75
2021/12/18 05:19:09;;;;;;;3.20;1.37;;;10.80;99.90;;;;;;5072555;28;20178;-75
2021/12/18 05:21:36;;;;;;;6.00;1.70;;;11.00;99.90;;;;;;5072524;28;20032;-76
2021/12/18 05:24:03;;;;;;;4.20;1.55;;;11.20;99.90;;;;;;5072420;28;20028;-75
2021/12/18 05:26:33;;;;;;;3.75;1.80;;;11.20;99.90;;;;;;5073043;28;20020;-75
2021/12/18 05:29:01;;;;;;;4.72;1.63;;;11.30;99.90;;;;;;5072486;28;20025;-75
2021/12/18 05:31:35;;;;;;;6.00;1.67;;;11.40;99.90;;;;;;5057735;28;20091;-76
2021/12/18 05:34:36;;;;;;;5.43;1.40;;;11.50;99.90;;;;;;5058629;28;20180;-79
2021/12/18 05:37:19;;;;;;;4.50;1.70;;;11.40;99.90;;;;;;5076643;28;20032;-76
2021/12/18 05:39:47;;;;;;;3.83;1.80;;;11.40;99.90;;;;;;5044064;28;20024;-76
2021/12/18 05:42:15;;;;;;;4.50;1.73;;;11.30;99.90;;;;;;5076461;28;20496;-75
2021/12/18 05:44:42;;;;;;;4.90;1.60;;;11.40;99.90;;;;;;5075767;28;20033;-76
2021/12/18 05:47:08;;;;;;;4.25;2.00;;;11.40;99.90;;;;;;5076348;28;20032;-75
2021/12/18 05:49:35;;;;;;;3.90;1.55;;;11.30;99.90;;;;;;5058046;28;20020;-75
2021/12/18 05:52:22;;;;;;;4.32;1.73;;;11.30;99.90;;;;;;5075896;28;20044;-75
2021/12/18 05:54:50;;;;;;;3.38;1.65;;;11.20;99.90;;;;;;5076522;28;20031;-75
2021/12/18 05:57:17;;;;;;;2.80;1.40;;;11.10;99.90;;;;;;5058802;28;20031;-75
2021/12/18 05:59:44;;;;;;;4.75;1.80;;;11.10;99.90;;;;;;5075809;28;20064;-74
2021/12/18 06:02:10;;;;;;;;;;;11.10;99.90;;;;;;5076181;28;20029;-74
2021/12/18 06:04:36;;;;;;;5.00;1.85;;;11.20;99.90;;;;;;5076024;28;19927;-76
2021/12/18 06:07:06;;;;;;;4.57;1.90;;;11.30;99.90;;;;;;5075763;28;20036;-75
2021/12/18 06:09:36;;;;;;;2.97;1.58;;;11.20;99.90;;;;;;5076219;28;20024;-75
2021/12/18 06:12:05;;;;;;;5.82;1.85;;;11.10;99.90;;;;;;5076139;28;20028;-75
2021/12/18 06:14:34;;;;;;;6.40;2.00;;;11.00;99.90;;;;;;5075855;28;20046;-76
2021/12/18 06:17:01;;;;;;;6.53;2.00;;;11.00;99.90;;;;;;5057525;28;20032;-74
2021/12/18 06:19:27;;;;;;;7.40;2.38;;;10.90;99.90;;;;;;5076021;28;20055;-75
2021/12/18 06:21:53;;;;;;;4.63;2.27;;;10.90;99.90;;;;;;5075403;28;20376;-75
2021/12/18 06:24:19;;;;;;;6.35;2.33;;;11.00;99.90;;;;;;5075323;28;20500;-75
2021/12/18 06:26:46;;;;;;;5.93;2.17;;;10.90;99.90;;;;;;5075664;28;20021;-72
2021/12/18 06:29:13;;;;;;;4.80;2.58;;;11.00;99.90;;;;;;5074337;28;20025;-74
2021/12/18 06:31:39;;;;;;;8.02;2.22;;;11.00;99.90;;;;;;5074957;28;20051;-75
2021/12/18 06:34:06;;;;;;;5.72;2.22;;;11.30;99.90;;;;;;5075408;28;20023;-75
2021/12/18 06:36:32;;;;;;;6.55;2.08;;;11.50;99.90;;;;;;5074994;28;20029;-75
2021/12/18 06:39:01;;;;;;;7.13;2.08;;;12.00;99.90;;;;;;5053607;28;20029;-75
2021/12/18 06:41:27;;;;;;;6.00;1.90;;;12.50;99.90;;;;;;5051583;28;20049;-75
2021/12/18 06:43:55;;;;;;;4.90;1.60;;;13.00;99.90;;;;;;5052905;28;20029;-75
2021/12/18 06:46:21;;;;;;;5.72;2.10;;;13.40;99.40;;;;;;5052672;28;20744;-73
2021/12/18 06:48:47;;;;;;;4.53;2.10;;;14.00;99.40;;;;;;5052404;28;20036;-73
2021/12/18 06:51:15;;;;;;;4.00;1.90;;;14.50;97.90;;;;;;5052315;28;20795;-75
2021/12/18 06:53:41;;;;;;;6.82;1.88;;;14.70;98.80;;;;;;5052397;28;20040;-75
2021/12/18 06:56:08;;;;;;;8.23;1.70;;;15.40;97.20;;;;;;5052709;28;20029;-76
2021/12/18 06:58:36;;;;;;;5.20;2.00;;;16.00;96.30;;;;;;5052124;28;20067;-76
2021/12/18 07:01:03;;;;;;;2.90;1.55;;;16.40;95.30;;;;;;5052426;28;20089;-74
2021/12/18 07:03:34;;;;;;;6.22;1.77;;;16.90;94.30;;;;;;5052001;28;20100;-78
2021/12/18 07:06:01;;;;;;;6.75;1.83;;;16.50;94.00;;;;;;5035730;28;20387;-76
2021/12/18 07:08:30;;;;;;;5.93;1.98;;;16.60;94.60;;;;;;5051879;28;20033;-75
2021/12/18 07:11:26;;;;;;;5.20;1.50;;;16.90;96.80;;;;;;5051952;28;20028;-74
2021/12/18 07:13:56;;;;;;;4.47;1.80;;;16.90;94.30;;;;;;5052457;28;20478;-75
2021/12/18 07:16:23;;;;;;;5.32;1.45;;;17.40;93.50;;;;;;5034976;28;20029;-75
2021/12/18 07:18:51;;;;;;;5.60;1.73;;;17.80;93.10;;;;;;5051721;28;20146;-76
2021/12/18 07:21:21;;;;;;;4.80;1.77;;;17.80;92.30;;;;;;5035527;28;20051;-75
2021/12/18 07:23:47;;;;;;;4.70;1.60;;;17.50;91.90;;;;;;5071678;28;20374;-75
2021/12/18 07:26:16;;;;;;;8.02;1.80;;;17.50;92.40;;;;;;5074386;28;20028;-75
2021/12/18 07:29:01;;;;;;;4.57;1.42;;;16.70;92.80;;;;;;5074299;28;20317;-77
2021/12/18 07:31:28;;;;;;;3.47;1.60;;;16.10;93.60;;;;;;5073656;28;20137;-76
2021/12/18 07:33:57;;;;;;;4.18;1.73;;;15.90;93.70;;;;;;5073435;28;20037;-75
2021/12/18 07:36:23;;;;;;;6.18;1.65;;;16.20;94.30;;;;;;5073429;28;20050;-76
2021/12/18 07:38:49;;;;;;;4.72;1.55;;;16.80;93.50;;;;;;5073404;28;20017;-75
2021/12/18 07:41:28;;;;;;;2.95;1.35;;;17.00;93.20;;;;;;5073548;28;20041;-75
2021/12/18 07:44:28;;;;;;;2.83;1.45;;;17.40;92.00;;;;;;5055529;28;20111;-76
2021/12/18 07:46:58;;;;;;;5.43;1.80;;;17.40;91.90;;;;;;5073321;28;20404;-75
2021/12/18 07:49:26;;;;;;;4.38;1.65;;;17.20;92.10;;;;;;5073526;28;20059;-76
2021/12/18 07:51:54;;;;;;;3.08;1.75;;;16.60;92.50;;;;;;5073434;28;20031;-76
2021/12/18 07:54:20;;;;;;;4.72;1.80;;;16.00;93.10;;;;;;5073376;28;20024;-76
2021/12/18 07:56:47;;;;;;;3.42;1.70;;;15.70;93.30;;;;;;5073710;28;20021;-76
2021/12/18 07:59:13;;;;;;;4.88;1.88;;;15.40;93.90;;;;;;5073734;28;20435;-75
2021/12/18 08:01:39;;;;;;;5.75;1.92;;;15.50;93.90;;;;;;5073278;28;20032;-77
2021/12/18 08:04:05;;;;;;;4.43;1.83;;;15.70;93.80;;;;;;5073192;28;20119;-76
2021/12/18 08:06:31;;;;;;;6.55;2.28;;;15.90;93.00;;;;;;5073524;28;20082;-72
2021/12/18 08:09:00;;;;;;;4.38;1.55;;;16.00;93.30;;;;;;5073592;28;20032;-77
2021/12/18 08:11:26;;;;;;;3.28;1.67;;;16.10;93.40;;;;;;5073597;28;20035;-77
2021/12/18 08:13:52;;;;;;;5.38;1.95;;;16.30;93.00;;;;;;5055227;28;20101;-75
2021/12/18 08:16:19;;;;;;;3.77;1.80;;;16.30;92.70;;;;;;5072804;28;20032;-74
2021/12/18 08:18:45;;;;;;;4.90;1.90;;;16.30;93.10;;;;;;5073235;28;20735;-77
2021/12/18 08:21:25;;;;;;;5.63;2.00;;;16.50;92.90;;;;;;5073265;28;20040;-75
2021/12/18 08:23:52;;;;;;;4.80;1.80;;;16.70;92.70;;;;;;5054529;28;20024;-75
2021/12/18 08:26:18;;;;;;;6.72;2.10;;;16.60;93.00;;;;;;5072839;28;20037;-75
2021/12/18 08:28:44;;;;;;;5.65;2.10;;;16.30;93.50;;;;;;5073086;28;20024;-75
2021/12/18 08:31:13;;;;;;;7.50;2.20;;;16.20;94.10;;;;;;5072341;28;20135;-75
2021/12/18 08:33:39;;;;;;;13.55;2.30;;;16.10;94.00;;;;;;5073244;28;20017;-75
2021/12/18 08:36:05;;;;;;;7.88;2.28;;;16.10;94.10;;;;;;5072851;28;20107;-74
2021/12/18 08:38:31;;;;;;;4.28;1.90;;;16.10;94.80;;;;;;5073206;28;20365;-76
2021/12/18 08:40:57;;;;;;;8.68;2.47;;;16.30;94.30;;;;;;5072477;28;20062;-75
2021/12/18 08:43:24;;;;;;;6.40;2.22;;;16.30;94.70;;;;;;5072851;28;20024;-74
2021/12/18 08:45:50;;;;;;;11.10;2.65;;;16.40;96.80;;;;;;5072651;28;20024;-75
2021/12/18 08:48:17;;;;;;;6.10;2.10;;;16.20;95.20;;;;;;5073196;28;20108;-75
2021/12/18 08:50:43;;;;;;;;;;;16.00;95.30;;;;;;5072575;28;20029;-75
2021/12/18 08:53:10;;;;;;;8.55;2.03;;;15.50;95.20;;;;;;5071970;28;19911;-74
2021/12/18 08:55:37;;;;;;;4.00;1.77;;;15.00;95.30;;;;;;5071803;28;20052;-74
2021/12/18 08:58:05;;;;;;;6.38;2.38;;;14.50;95.30;;;;;;5053865;28;20449;-73
2021/12/18 09:00:34;;;;;;;4.95;1.65;;;14.50;95.70;;;;;;5071797;28;20025;-74
2021/12/18 09:03:01;;;;;;;4.95;1.88;;;14.40;96.00;;;;;;5053924;28;20029;-75
2021/12/18 09:05:29;;;;;;;5.40;1.85;;;14.50;96.80;;;;;;5073393;28;20031;-75
2021/12/18 09:07:56;;;;;;;5.75;1.58;;;14.30;95.40;;;;;;5075924;28;20103;-77
2021/12/18 09:10:23;;;;;;;;;;;14.30;95.40;;;;;;5076581;28;20372;-76
2021/12/18 09:12:52;;;;;;;4.45;1.52;;;14.20;95.20;;;;;;5075832;28;19904;-76
2021/12/18 09:15:28;;;;;;;7.20;1.83;;;14.10;95.50;;;;;;5075661;28;20029;-74
2021/12/18 09:18:00;;;;;;;4.63;1.50;;;14.00;95.50;;;;;;5057958;28;20043;-76
2021/12/18 09:20:36;;;;;;;5.78;1.60;;;13.80;95.30;;;;;;5057866;28;20043;-76
2021/12/18 09:23:03;;;;;;;4.03;1.63;;;14.00;94.80;;;;;;5075712;28;20054;-74
2021/12/18 09:25:37;;;;;;;3.80;1.50;;;14.00;95.10;;;;;;5075890;28;20033;-74
2021/12/18 09:28:06;;;;;;;7.50;1.33;;;14.10;93.90;;;;;;5075450;28;20095;-74
2021/12/18 09:30:37;;;;;;;7.53;1.58;;;14.40;94.00;;;;;;5075588;28;20041;-75
2021/12/18 09:33:03;;;;;;;2.45;1.15;;;14.60;93.40;;;;;;5058638;28;20112;-75
2021/12/18 09:35:32;;;;;;;7.55;1.52;;;14.80;92.10;;;;;;5057884;28;20086;-77
2021/12/18 09:38:00;;;;;;;9.35;1.50;;;15.10;93.00;;;;;;5057493;28;20391;-77
2021/12/18 09:40:26;;;;;;;11.43;1.58;;;15.30;92.60;;;;;;5075219;28;20027;-74
2021/12/18 09:42:52;;;;;;;10.40;1.50;;;15.40;91.80;;;;;;5075848;28;20025;-74
2021/12/18 09:45:19;;;;;;;6.37;1.30;;;15.50;91.20;;;;;;5074999;28;20516;-74
2021/12/18 09:47:46;;;;;;;3.97;1.48;;;15.60;91.10;;;;;;5057175;28;20320;-75
2021/12/18 09:50:13;;;;;;;5.95;1.90;;;15.60;91.40;;;;;;5056886;28;20490;-74
2021/12/18 09:52:40;;;;;;;6.50;1.50;;;15.60;91.40;;;;;;5074987;28;20029;-73
2021/12/18 09:55:10;;;;;;;5.00;1.60;;;15.40;90.90;;;;;;5056857;28;20033;-73
2021/12/18 09:57:37;;;;;;;4.65;1.38;;;15.30;91.80;;;;;;5074016;28;20032;-73
2021/12/18 10:00:06;;;;;;;9.82;1.45;;;15.50;91.40;;;;;;5075212;28;20028;-76
2021/12/18 10:02:32;;;;;;;7.97;1.85;;;15.60;91.10;;;;;;5074556;28;20035;-74
2021/12/18 10:04:59;;;;;;;8.47;1.70;;;15.40;91.40;;;;;;5074683;28;20460;-74
2021/12/18 10:07:27;;;;;;;7.00;1.93;;;15.20;92.30;;;;;;5075173;28;20285;-75
2021/12/18 10:09:57;;;;;;;4.32;1.63;;;14.90;93.20;;;;;;5056459;28;20317;-73
2021/12/18 10:12:24;;;;;;;7.15;1.42;;;15.00;93.30;;;;;;5074557;28;20490;-72
2021/12/18 10:15:02;;;;;;;5.22;1.45;;;14.80;93.20;;;;;;5074433;28;20434;-74
2021/12/18 10:17:33;;;;;;;8.98;1.80;;;14.80;93.80;;;;;;5074652;28;20032;-78
2021/12/18 10:20:11;;;;;;;8.40;1.80;;;14.90;92.80;;;;;;5074803;28;20458;-74
2021/12/18 10:22:50;;;;;;;8.77;1.40;;;15.20;92.60;;;;;;5074585;28;20032;-75
2021/12/18 10:25:25;;;;;;;5.32;1.50;;;15.30;92.50;;;;;;5074794;28;20028;-74
2021/12/18 10:28:08;;;;;;;5.72;1.52;;;15.30;91.00;;;;;;5056486;28;20484;-76
2021/12/18 10:30:35;;;;;;;7.55;1.40;;;15.20;90.90;;;;;;5074184;28;20373;-71
2021/12/18 10:33:10;;;;;;;4.35;1.48;;;15.30;90.70;;;;;;5074580;28;20032;-74
2021/12/18 10:35:43;;;;;;;23.65;2.22;;;15.20;90.60;;;;;;5074800;28;20020;-74
2021/12/18 10:38:30;;;;;;;4.53;2.10;;;15.40;90.60;;;;;;5074849;28;20349;-73
2021/12/18 10:40:56;;;;;;;8.00;1.63;;;15.50;90.20;;;;;;5073996;28;20500;-74
2021/12/18 10:43:22;;;;;;;10.37;1.40;;;15.60;90.00;;;;;;5074961;28;20020;-74
2021/12/18 10:45:48;;;;;;;6.33;1.53;;;15.50;87.40;;;;;;5074394;28;20339;-76
2021/12/18 10:48:16;;;;;;;4.65;1.20;;;15.40;86.30;;;;;;5074226;28;20028;-73
2021/12/18 10:50:53;;;;;;;7.63;1.52;;;15.20;85.40;;;;;;5074113;28;20012;-74
2021/12/18 10:53:29;;;;;;;6.50;1.17;;;15.00;87.00;;;;;;5074274;28;20077;-74
2021/12/18 10:55:58;;;;;;;6.75;1.90;;;15.10;87.20;;;;;;5073778;28;20024;-74
2021/12/18 10:58:36;;;;;;;3.17;1.10;;;15.40;86.00;;;;;;5073878;28;20381;-74
2021/12/18 11:01:14;;;;;;;5.47;1.55;;;15.40;82.70;;;;;;5055483;28;20457;-73
2021/12/18 11:03:46;;;;;;;5.82;1.25;;;15.40;84.30;;;;;;5073388;28;20036;-73
2021/12/18 11:06:28;;;;;;;5.68;1.10;;;15.30;83.50;;;;;;5073345;28;20032;-74
2021/12/18 11:09:15;;;;;;;7.07;1.60;;;15.10;82.10;;;;;;5073405;28;20036;-73
2021/12/18 11:14:18;;;;;;;4.05;1.20;;;14.90;79.20;;;;;;5072859;28;20121;-73
2021/12/18 11:16:48;;;;;;;5.68;1.20;;;14.90;80.40;;;;;;5073611;28;20043;-73
2021/12/18 11:19:17;;;;;;;6.15;1.08;;;14.90;80.00;;;;;;5072330;28;20033;-73
2021/12/18 11:21:48;;;;;;;5.07;0.90;;;14.70;80.20;;;;;;5072653;28;20037;-73
2021/12/18 11:24:15;;;;;;;3.75;0.90;;;14.70;78.70;;;;;;5073043;28;20031;-74
2021/12/18 11:26:45;;;;;;;9.40;1.33;;;14.90;75.70;;;;;;5073067;28;20028;-74
2021/12/18 11:29:13;;;;;;;5.32;1.10;;;14.90;76.70;;;;;;5054377;28;20040;-73
2021/12/18 11:31:41;;;;;;;6.30;1.00;;;15.10;78.00;;;;;;5072828;28;20382;-74
2021/12/18 11:34:07;;;;;;;6.85;1.33;;;14.80;75.20;;;;;;5073332;28;20111;-73
2021/12/18 11:36:38;;;;;;;3.63;1.00;;;14.80;76.50;;;;;;5073475;28;20032;-73
2021/12/18 11:39:04;;;;;;;3.88;1.05;;;14.70;78.20;;;;;;5073196;28;20040;-73
2021/12/18 11:41:31;;;;;;;4.50;1.07;;;14.70;78.80;;;;;;5072972;28;20033;-74
2021/12/18 11:43:57;;;;;;;11.30;1.27;;;14.90;80.50;;;;;;5054680;28;20132;-73
2021/12/18 11:46:36;;;;;;;6.20;1.40;;;15.10;84.60;;;;;;5072487;28;20035;-73
2021/12/18 11:49:07;;;;;;;5.47;1.08;;;14.90;77.10;;;;;;5072428;28;20036;-72
2021/12/18 11:51:34;;;;;;;6.22;1.08;;;14.70;77.60;;;;;;5072593;28;20027;-72
2021/12/18 11:54:05;;;;;;;4.60;1.30;;;14.50;76.30;;;;;;5054496;28;20496;-73
2021/12/18 11:56:49;;;;;;;4.72;1.15;;;14.50;77.60;;;;;;5072659;28;20023;-73
2021/12/18 11:59:42;;;;;;;9.60;1.48;;;14.50;78.10;;;;;;5053951;28;20024;-74
2021/12/18 12:02:14;;;;;;;3.38;1.02;;;14.80;79.20;;;;;;5071133;28;20112;-74
2021/12/18 12:05:00;;;;;;;7.20;1.38;;;14.80;76.90;;;;;;5071709;28;20021;-74
2021/12/18 12:07:28;;;;;;;4.18;1.00;;;14.80;78.30;;;;;;5071976;28;20025;-75
2021/12/18 12:10:44;;;;;;;4.63;0.98;;;14.60;75.60;;;;;;5054007;28;20143;-74
2021/12/18 12:13:09;;;;;;;3.17;0.70;;;14.50;73.60;;;;;;5071622;28;20051;-73
2021/12/18 12:15:49;;;;;;;3.30;0.70;;;14.50;66.80;;;;;;5071552;28;20087;-72
2021/12/18 12:18:16;;;;;;;7.72;1.00;;;14.30;64.50;;;;;;5070667;28;20109;-74
2021/12/18 12:20:46;;;;;;;;;;;14.60;68.50;;;;;;5072926;28;20055;-73
2021/12/18 12:23:17;;;;;;;9.60;1.08;;;14.50;66.60;;;;;;5071788;28;19987;-74
2021/12/18 12:25:52;;;;;;;3.80;0.88;;;14.50;67.40;;;;;;5051999;28;20028;-74
2021/12/18 12:28:24;;;;;;;4.38;1.35;;;14.60;67.70;;;;;;5034515;28;20416;-74
2021/12/18 12:31:04;;;;;;;5.97;1.00;;;14.60;66.80;;;;;;5051696;28;20052;-75
2021/12/18 12:33:36;;;;;;;4.40;1.10;;;14.60;65.90;;;;;;5034700;28;20028;-73
2021/12/18 12:36:09;;;;;;;3.42;0.73;;;14.70;69.60;;;;;;5052055;28;20029;-74
2021/12/18 12:38:57;;;;;;;6.30;1.10;;;14.70;66.40;;;;;;5052257;28;20349;-74
2021/12/18 12:41:28;;;;;;;4.97;1.00;;;14.80;66.90;;;;;;5051603;28;20486;-73
2021/12/18 12:43:59;;;;;;;4.55;1.10;;;14.90;67.80;;;;;;5052622;28;20111;-74
2021/12/18 12:46:27;;;;;;;5.45;1.30;;;15.00;64.90;;;;;;5054440;28;20071;-74
2021/12/18 12:49:24;;;;;;;2.65;0.85;;;14.90;64.80;;;;;;5053738;28;20060;-72
2021/12/18 12:52:00;;;;;;;10.25;1.60;;;15.10;64.80;;;;;;5071133;28;20100;-74
2021/12/18 12:54:45;;;;;;;4.05;0.95;;;14.90;65.90;;;;;;5054247;28;20460;-74
2021/12/18 12:57:23;;;;;;;7.75;1.08;;;14.90;66.10;;;;;;5053715;28;20032;-74
2021/12/18 13:00:08;;;;;;;4.32;1.05;;;14.80;70.90;;;;;;5071970;28;20017;-74
2021/12/18 13:02:38;;;;;;;5.43;1.10;;;14.90;68.00;;;;;;5053690;28;20445;-73
2021/12/18 13:05:11;;;;;;;4.03;0.90;;;14.80;69.10;;;;;;5054400;28;20353;-78
2021/12/18 13:07:54;;;;;;;5.70;1.17;;;14.70;75.40;;;;;;5071876;28;20088;-75
2021/12/18 13:10:34;;;;;;;6.32;1.08;;;14.60;69.10;;;;;;5072201;28;20099;-73
2021/12/18 13:13:12;;;;;;;5.97;1.23;;;14.50;67.40;;;;;;5054341;28;20033;-75
2021/12/18 13:15:49;;;;;;;7.07;1.42;;;14.50;68.20;;;;;;5072508;28;20020;-74
2021/12/18 13:18:15;;;;;;;3.92;1.17;;;14.60;70.40;;;;;;5071953;28;20082;-74
2021/12/18 13:20:57;;;;;;;5.70;1.27;;;14.30;73.40;;;;;;5071906;28;20311;-75
2021/12/18 13:23:45;;;;;;;3.40;1.00;;;14.30;71.50;;;;;;5072070;28;20017;-75
2021/12/18 13:26:19;;;;;;;5.30;1.00;;;14.20;70.50;;;;;;5072132;28;20040;-75
2021/12/18 13:29:19;;;;;;;5.97;1.15;;;14.20;70.80;;;;;;5072415;28;20062;-75
2021/12/18 13:31:55;;;;;;;7.47;1.20;;;14.20;72.50;;;;;;4990427;28;20069;-73
2021/12/18 13:34:37;;;;;;;6.03;1.13;;;14.30;71.60;;;;;;4990362;28;20046;-73
2021/12/18 13:37:06;;;;;;;4.97;1.15;;;14.50;71.10;;;;;;4990302;28;20484;-74
2021/12/18 13:39:55;;;;;;;5.88;1.08;;;14.50;69.90;;;;;;4990339;28;20137;-73
2021/12/18 13:42:23;;;;;;;7.18;1.13;;;14.60;69.10;;;;;;4989830;28;20072;-74
2021/12/18 13:44:57;;;;;;;7.10;1.00;;;14.60;71.50;;;;;;4990178;28;20033;-75
2021/12/18 13:47:41;;;;;;;3.65;1.10;;;14.50;70.20;;;;;;4990139;28;20042;-74